sensor_id;sensor_type;location;lat;lon;timestamp;pressure;altitude;pressure_sealevel;temperature;humidity
68988;BME280;56038;46.080;11.116;2023-03-31T00:02:42;99341.53;;;12.51;62.63
68988;BME280;56038;46.080;11.116;2023-03-31T00:07:46;99340.75;;;12.49;62.55
68988;BME280;56038;46.080;11.116;2023-03-31T00:12:48;99330.63;;;12.42;63.03
68988;BME280;56038;46.080;11.116;2023-03-31T00:17:50;99333.19;;;12.43;62.91
68988;BME280;56038;46.080;11.116;2023-03-31T00:22:53;99328.84;;;12.42;62.66
68988;BME280;56038;46.080;11.116;2023-03-31T00:27:57;99326.53;;;12.36;63.68
68988;BME280;56038;46.080;11.116;2023-03-31T00:32:58;99316.31;;;12.32;63.79
68988;BME280;56038;46.080;11.116;2023-03-31T00:38:02;99306.78;;;12.29;63.98
68988;BME280;56038;46.080;11.116;2023-03-31T00:43:24;99311.09;;;12.30;64.62
68988;BME280;56038;46.080;11.116;2023-03-31T00:48:28;99302.34;;;12.31;63.15
68988;BME280;56038;46.080;11.116;2023-03-31T00:53:32;99294.50;;;12.31;63.41
68988;BME280;56038;46.080;11.116;2023-03-31T00:58:35;99290.03;;;12.33;63.38
68988;BME280;56038;46.080;11.116;2023-03-31T01:03:43;99280.47;;;12.32;63.91
68988;BME280;56038;46.080;11.116;2023-03-31T01:08:48;99269.84;;;12.35;63.18
68988;BME280;56038;46.080;11.116;2023-03-31T01:13:52;99268.31;;;12.31;63.89
68988;BME280;56038;46.080;11.116;2023-03-31T01:18:56;99275.09;;;12.35;63.37
68988;BME280;56038;46.080;11.116;2023-03-31T01:35:44;99252.41;;;12.17;64.56
68988;BME280;56038;46.080;11.116;2023-03-31T01:41:04;99250.84;;;12.13;64.49
68988;BME280;56038;46.080;11.116;2023-03-31T01:46:19;99255.22;;;12.12;65.38
68988;BME280;56038;46.080;11.116;2023-03-31T01:51:30;99251.78;;;12.12;64.42
68988;BME280;56038;46.080;11.116;2023-03-31T01:56:36;99252.91;;;12.06;64.57
68988;BME280;56038;46.080;11.116;2023-03-31T02:01:42;99245.75;;;12.10;64.49
68988;BME280;56038;46.080;11.116;2023-03-31T02:06:51;99232.81;;;12.07;64.61
68988;BME280;56038;46.080;11.116;2023-03-31T02:11:57;99220.81;;;12.03;64.36
68988;BME280;56038;46.080;11.116;2023-03-31T02:17:01;99219.03;;;12.03;64.50
68988;BME280;56038;46.080;11.116;2023-03-31T02:22:05;99216.00;;;11.93;65.61
68988;BME280;56038;46.080;11.116;2023-03-31T02:27:12;99200.47;;;11.90;65.06
68988;BME280;56038;46.080;11.116;2023-03-31T02:32:21;99202.06;;;11.93;64.95
68988;BME280;56038;46.080;11.116;2023-03-31T02:37:23;99208.16;;;11.93;65.02
68988;BME280;56038;46.080;11.116;2023-03-31T02:42:27;99198.00;;;11.87;65.45
68988;BME280;56038;46.080;11.116;2023-03-31T02:47:29;99198.75;;;11.89;64.91
68988;BME280;56038;46.080;11.116;2023-03-31T02:52:50;99192.00;;;11.85;66.08
68988;BME280;56038;46.080;11.116;2023-03-31T02:58:14;99185.47;;;11.75;67.38
68988;BME280;56038;46.080;11.116;2023-03-31T03:03:32;99183.16;;;11.69;67.34
68988;BME280;56038;46.080;11.116;2023-03-31T03:08:46;99184.06;;;11.68;67.07
68988;BME280;56038;46.080;11.116;2023-03-31T03:13:59;99183.50;;;11.61;67.65
68988;BME280;56038;46.080;11.116;2023-03-31T03:19:06;99183.50;;;11.61;66.98
68988;BME280;56038;46.080;11.116;2023-03-31T03:24:08;99187.38;;;11.72;66.09
68988;BME280;56038;46.080;11.116;2023-03-31T03:29:11;99195.06;;;11.75;65.60
68988;BME280;56038;46.080;11.116;2023-03-31T03:34:14;99176.34;;;11.65;67.07
68988;BME280;56038;46.080;11.116;2023-03-31T03:39:15;99176.34;;;11.65;66.57
68988;BME280;56038;46.080;11.116;2023-03-31T03:44:19;99168.38;;;11.68;66.33
68988;BME280;56038;46.080;11.116;2023-03-31T03:49:20;99159.44;;;11.72;65.75
68988;BME280;56038;46.080;11.116;2023-03-31T03:54:22;99155.91;;;11.73;65.91
68988;BME280;56038;46.080;11.116;2023-03-31T03:59:25;99141.22;;;11.70;66.38
68988;BME280;56038;46.080;11.116;2023-03-31T04:04:27;99162.22;;;11.69;65.85
68988;BME280;56038;46.080;11.116;2023-03-31T04:09:29;99156.06;;;11.70;66.18
68988;BME280;56038;46.080;11.116;2023-03-31T04:14:32;99154.13;;;11.74;65.90
68988;BME280;56038;46.080;11.116;2023-03-31T04:19:34;99143.75;;;11.72;65.88
68988;BME280;56038;46.080;11.116;2023-03-31T04:24:37;99143.94;;;11.67;66.22
68988;BME280;56038;46.080;11.116;2023-03-31T04:29:40;99145.25;;;11.59;66.78
68988;BME280;56038;46.080;11.116;2023-03-31T04:34:55;99130.47;;;11.58;67.64
68988;BME280;56038;46.080;11.116;2023-03-31T04:40:03;99122.41;;;11.62;67.87
68988;BME280;56038;46.080;11.116;2023-03-31T04:45:11;99119.50;;;11.68;67.72
68988;BME280;56038;46.080;11.116;2023-03-31T04:50:13;99127.56;;;11.64;68.39
68988;BME280;56038;46.080;11.116;2023-03-31T04:55:15;99131.66;;;11.69;68.09
68988;BME280;56038;46.080;11.116;2023-03-31T05:00:19;99142.41;;;11.63;69.24
68988;BME280;56038;46.080;11.116;2023-03-31T05:05:24;99141.63;;;11.61;69.44
68988;BME280;56038;46.080;11.116;2023-03-31T05:10:30;99135.47;;;11.62;69.18
68988;BME280;56038;46.080;11.116;2023-03-31T05:15:36;99124.25;;;11.60;69.80
68988;BME280;56038;46.080;11.116;2023-03-31T05:20:38;99106.00;;;11.59;69.80
68988;BME280;56038;46.080;11.116;2023-03-31T05:25:40;99112.94;;;11.60;70.14
68988;BME280;56038;46.080;11.116;2023-03-31T05:30:44;99101.72;;;11.58;69.81
68988;BME280;56038;46.080;11.116;2023-03-31T05:35:45;99123.56;;;11.57;70.26
68988;BME280;56038;46.080;11.116;2023-03-31T05:40:47;99109.81;;;11.52;70.71
68988;BME280;56038;46.080;11.116;2023-03-31T05:45:51;99096.91;;;11.49;70.80
68988;BME280;56038;46.080;11.116;2023-03-31T05:50:55;99092.81;;;11.43;71.05
68988;BME280;56038;46.080;11.116;2023-03-31T05:55:57;99101.53;;;11.44;71.46
68988;BME280;56038;46.080;11.116;2023-03-31T06:01:03;99094.44;;;11.46;70.81
68988;BME280;56038;46.080;11.116;2023-03-31T06:06:07;99073.16;;;11.53;70.71
68988;BME280;56038;46.080;11.116;2023-03-31T06:11:11;99062.47;;;11.58;70.71
68988;BME280;56038;46.080;11.116;2023-03-31T06:16:18;99064.56;;;11.68;69.80
68988;BME280;56038;46.080;11.116;2023-03-31T06:21:19;99049.22;;;11.78;69.47
68988;BME280;56038;46.080;11.116;2023-03-31T06:26:21;99045.72;;;11.79;69.79
68988;BME280;56038;46.080;11.116;2023-03-31T06:31:24;99051.34;;;11.89;69.06
68988;BME280;56038;46.080;11.116;2023-03-31T06:36:26;99043.50;;;11.89;69.15
68988;BME280;56038;46.080;11.116;2023-03-31T06:41:28;99051.72;;;11.98;69.07
68988;BME280;56038;46.080;11.116;2023-03-31T06:46:31;99038.50;;;11.84;69.83
68988;BME280;56038;46.080;11.116;2023-03-31T06:51:32;99038.00;;;11.76;70.74
68988;BME280;56038;46.080;11.116;2023-03-31T06:56:34;99032.53;;;11.63;71.40
68988;BME280;56038;46.080;11.116;2023-03-31T07:01:37;99033.69;;;11.58;71.42
68988;BME280;56038;46.080;11.116;2023-03-31T07:06:41;99032.59;;;11.62;71.10
68988;BME280;56038;46.080;11.116;2023-03-31T07:11:43;99038.53;;;11.65;70.38
68988;BME280;56038;46.080;11.116;2023-03-31T07:16:46;99020.13;;;11.67;70.51
68988;BME280;56038;46.080;11.116;2023-03-31T07:21:48;99023.22;;;11.75;70.28
68988;BME280;56038;46.080;11.116;2023-03-31T07:26:49;99000.78;;;11.88;69.88
68988;BME280;56038;46.080;11.116;2023-03-31T07:31:52;98995.00;;;11.82;70.10
68988;BME280;56038;46.080;11.116;2023-03-31T07:36:55;99003.66;;;11.84;70.97
68988;BME280;56038;46.080;11.116;2023-03-31T07:41:56;98996.13;;;11.76;70.39
68988;BME280;56038;46.080;11.116;2023-03-31T07:46:59;99012.28;;;11.67;71.19
68988;BME280;56038;46.080;11.116;2023-03-31T07:52:04;99014.38;;;11.60;71.61
68988;BME280;56038;46.080;11.116;2023-03-31T07:57:05;99018.91;;;11.57;71.08
68988;BME280;56038;46.080;11.116;2023-03-31T08:02:10;99013.06;;;11.52;71.77
68988;BME280;56038;46.080;11.116;2023-03-31T08:07:14;99005.16;;;11.53;71.33
68988;BME280;56038;46.080;11.116;2023-03-31T08:12:16;98986.59;;;11.75;70.94
68988;BME280;56038;46.080;11.116;2023-03-31T08:17:19;98987.69;;;11.88;70.24
68988;BME280;56038;46.080;11.116;2023-03-31T08:22:21;98981.97;;;11.97;69.92
68988;BME280;56038;46.080;11.116;2023-03-31T08:27:23;98961.31;;;12.09;69.46
68988;BME280;56038;46.080;11.116;2023-03-31T08:32:26;98956.19;;;12.23;69.00
68988;BME280;56038;46.080;11.116;2023-03-31T08:37:28;98947.59;;;12.37;68.33
68988;BME280;56038;46.080;11.116;2023-03-31T08:42:35;98953.03;;;12.49;68.08
68988;BME280;56038;46.080;11.116;2023-03-31T08:47:41;98950.81;;;12.57;67.61
68988;BME280;56038;46.080;11.116;2023-03-31T08:52:47;98949.81;;;12.60;67.51
68988;BME280;56038;46.080;11.116;2023-03-31T08:57:56;98941.63;;;12.50;67.80
68988;BME280;56038;46.080;11.116;2023-03-31T09:03:03;98951.00;;;12.54;67.36
68988;BME280;56038;46.080;11.116;2023-03-31T09:08:12;98955.88;;;12.60;67.52
68988;BME280;56038;46.080;11.116;2023-03-31T09:13:35;98939.75;;;12.52;67.84
68988;BME280;56038;46.080;11.116;2023-03-31T09:18:42;98920.03;;;12.45;68.22
68988;BME280;56038;46.080;11.116;2023-03-31T09:23:50;98913.81;;;12.32;69.08
68988;BME280;56038;46.080;11.116;2023-03-31T09:28:58;98913.28;;;12.25;69.16
68988;BME280;56038;46.080;11.116;2023-03-31T09:34:12;98902.91;;;12.24;69.65
68988;BME280;56038;46.080;11.116;2023-03-31T09:39:16;98891.22;;;12.29;69.39
68988;BME280;56038;46.080;11.116;2023-03-31T09:44:24;98872.41;;;12.39;69.33
68988;BME280;56038;46.080;11.116;2023-03-31T09:49:33;98865.56;;;12.52;69.16
68988;BME280;56038;46.080;11.116;2023-03-31T09:54:38;98863.34;;;12.44;69.07
68988;BME280;56038;46.080;11.116;2023-03-31T09:59:41;98854.31;;;12.50;68.34
68988;BME280;56038;46.080;11.116;2023-03-31T10:04:47;98848.63;;;12.57;68.51
68988;BME280;56038;46.080;11.116;2023-03-31T10:09:49;98834.97;;;12.52;68.10
68988;BME280;56038;46.080;11.116;2023-03-31T10:14:53;98827.03;;;12.54;68.21
68988;BME280;56038;46.080;11.116;2023-03-31T10:19:57;98826.41;;;12.65;67.62
68988;BME280;56038;46.080;11.116;2023-03-31T10:25:09;98833.06;;;12.70;67.71
68988;BME280;56038;46.080;11.116;2023-03-31T10:30:17;98829.97;;;12.64;67.81
68988;BME280;56038;46.080;11.116;2023-03-31T10:35:25;98834.28;;;12.65;67.89
68988;BME280;56038;46.080;11.116;2023-03-31T10:40:29;98826.81;;;12.73;67.35
68988;BME280;56038;46.080;11.116;2023-03-31T10:45:37;98820.44;;;12.77;67.10
68988;BME280;56038;46.080;11.116;2023-03-31T10:50:43;98816.66;;;12.82;66.97
68988;BME280;56038;46.080;11.116;2023-03-31T10:55:53;98803.06;;;12.90;66.86
68988;BME280;56038;46.080;11.116;2023-03-31T11:01:06;98772.03;;;12.98;66.71
68988;BME280;56038;46.080;11.116;2023-03-31T11:06:16;98753.00;;;13.09;66.29
68988;BME280;56038;46.080;11.116;2023-03-31T11:11:42;98736.75;;;13.18;66.25
68988;BME280;56038;46.080;11.116;2023-03-31T11:16:51;98731.81;;;13.28;65.77
68988;BME280;56038;46.080;11.116;2023-03-31T11:22:04;98708.66;;;13.34;65.51
68988;BME280;56038;46.080;11.116;2023-03-31T11:27:26;98674.81;;;13.58;64.94
68988;BME280;56038;46.080;11.116;2023-03-31T11:32:40;98673.06;;;13.71;64.24
68988;BME280;56038;46.080;11.116;2023-03-31T11:37:56;98661.69;;;13.85;64.16
68988;BME280;56038;46.080;11.116;2023-03-31T11:43:06;98648.59;;;13.98;63.55
68988;BME280;56038;46.080;11.116;2023-03-31T11:48:17;98626.44;;;14.02;63.63
68988;BME280;56038;46.080;11.116;2023-03-31T11:53:27;98606.59;;;13.98;63.39
68988;BME280;56038;46.080;11.116;2023-03-31T11:58:34;98598.28;;;14.04;62.81
68988;BME280;56038;46.080;11.116;2023-03-31T12:03:41;98585.81;;;14.07;62.79
68988;BME280;56038;46.080;11.116;2023-03-31T12:09:00;98576.56;;;14.02;63.15
68988;BME280;56038;46.080;11.116;2023-03-31T12:14:14;98562.38;;;13.92;63.10
68988;BME280;56038;46.080;11.116;2023-03-31T12:19:25;98548.00;;;13.97;62.94
68988;BME280;56038;46.080;11.116;2023-03-31T12:24:31;98523.09;;;14.03;62.52
68988;BME280;56038;46.080;11.116;2023-03-31T12:29:37;98512.94;;;14.11;62.27
68988;BME280;56038;46.080;11.116;2023-03-31T12:34:44;98499.38;;;14.17;62.10
68988;BME280;56038;46.080;11.116;2023-03-31T12:39:55;98490.22;;;14.10;61.78
68988;BME280;56038;46.080;11.116;2023-03-31T12:45:05;98493.38;;;14.02;61.57
68988;BME280;56038;46.080;11.116;2023-03-31T12:50:27;98496.41;;;13.96;61.15
68988;BME280;56038;46.080;11.116;2023-03-31T12:55:37;98492.13;;;13.95;61.23
68988;BME280;56038;46.080;11.116;2023-03-31T13:01:01;98476.16;;;13.98;61.04
68988;BME280;56038;46.080;11.116;2023-03-31T13:06:09;98460.50;;;13.84;61.13
68988;BME280;56038;46.080;11.116;2023-03-31T13:11:13;98438.13;;;13.78;61.24
68988;BME280;56038;46.080;11.116;2023-03-31T13:16:19;98438.13;;;13.78;60.95
68988;BME280;56038;46.080;11.116;2023-03-31T13:21:21;98431.59;;;13.71;60.82
68988;BME280;56038;46.080;11.116;2023-03-31T13:26:45;98429.63;;;13.62;60.71
68988;BME280;56038;46.080;11.116;2023-03-31T13:37:59;98412.72;;;13.66;60.13
68988;BME280;56038;46.080;11.116;2023-03-31T13:48:39;98371.91;;;13.62;60.36
68988;BME280;56038;46.080;11.116;2023-03-31T13:54:01;98364.88;;;13.63;59.90
68988;BME280;56038;46.080;11.116;2023-03-31T13:59:32;98352.91;;;13.59;59.71
68988;BME280;56038;46.080;11.116;2023-03-31T14:05:02;98332.66;;;13.73;59.21
68988;BME280;56038;46.080;11.116;2023-03-31T14:10:21;98321.97;;;14.00;58.65
68988;BME280;56038;46.080;11.116;2023-03-31T14:15:28;98312.50;;;14.11;58.11
68988;BME280;56038;46.080;11.116;2023-03-31T14:20:35;98296.03;;;14.32;58.10
68988;BME280;56038;46.080;11.116;2023-03-31T14:25:45;98305.97;;;14.53;57.63
68988;BME280;56038;46.080;11.116;2023-03-31T14:30:54;98280.44;;;14.42;57.18
68988;BME280;56038;46.080;11.116;2023-03-31T14:36:09;98284.84;;;14.54;57.00
68988;BME280;56038;46.080;11.116;2023-03-31T14:41:17;98295.06;;;14.70;56.78
68988;BME280;56038;46.080;11.116;2023-03-31T14:46:22;98280.91;;;14.60;57.19
68988;BME280;56038;46.080;11.116;2023-03-31T14:51:31;98250.72;;;14.42;57.08
68988;BME280;56038;46.080;11.116;2023-03-31T14:56:38;98256.38;;;14.35;56.86
68988;BME280;56038;46.080;11.116;2023-03-31T15:01:45;98233.66;;;14.23;57.47
68988;BME280;56038;46.080;11.116;2023-03-31T15:06:51;98240.41;;;14.15;58.21
68988;BME280;56038;46.080;11.116;2023-03-31T15:11:56;98252.72;;;13.90;58.92
68988;BME280;56038;46.080;11.116;2023-03-31T15:17:04;98264.09;;;13.65;59.98
68988;BME280;56038;46.080;11.116;2023-03-31T15:22:11;98265.16;;;13.63;60.56
68988;BME280;56038;46.080;11.116;2023-03-31T15:27:18;98261.38;;;13.54;61.13
68988;BME280;56038;46.080;11.116;2023-03-31T15:32:27;98260.94;;;13.09;64.70
68988;BME280;56038;46.080;11.116;2023-03-31T15:37:38;98267.13;;;13.08;64.72
68988;BME280;56038;46.080;11.116;2023-03-31T15:42:42;98271.63;;;13.06;64.58
68988;BME280;56038;46.080;11.116;2023-03-31T15:47:50;98274.25;;;12.94;66.18
68988;BME280;56038;46.080;11.116;2023-03-31T15:52:55;98264.34;;;12.59;66.43
68988;BME280;56038;46.080;11.116;2023-03-31T15:57:59;98256.31;;;12.35;66.50
68988;BME280;56038;46.080;11.116;2023-03-31T16:03:16;98250.94;;;12.24;68.58
68988;BME280;56038;46.080;11.116;2023-03-31T16:08:25;98247.41;;;12.11;67.91
68988;BME280;56038;46.080;11.116;2023-03-31T16:13:29;98241.66;;;12.06;68.03
68988;BME280;56038;46.080;11.116;2023-03-31T16:18:42;98237.25;;;12.06;69.05
68988;BME280;56038;46.080;11.116;2023-03-31T16:23:52;98228.06;;;12.13;68.51
68988;BME280;56038;46.080;11.116;2023-03-31T16:29:01;98224.94;;;12.21;67.72
68988;BME280;56038;46.080;11.116;2023-03-31T16:34:12;98219.31;;;12.27;68.82
68988;BME280;56038;46.080;11.116;2023-03-31T16:39:19;98225.38;;;12.27;68.34
68988;BME280;56038;46.080;11.116;2023-03-31T16:44:21;98224.53;;;12.27;68.62
68988;BME280;56038;46.080;11.116;2023-03-31T16:49:25;98221.28;;;12.23;70.48
68988;BME280;56038;46.080;11.116;2023-03-31T16:54:26;98192.75;;;12.06;70.55
68988;BME280;56038;46.080;11.116;2023-03-31T16:59:28;98193.91;;;12.02;71.22
68988;BME280;56038;46.080;11.116;2023-03-31T17:04:31;98218.94;;;12.06;71.13
68988;BME280;56038;46.080;11.116;2023-03-31T17:09:33;98191.38;;;12.01;71.73
68988;BME280;56038;46.080;11.116;2023-03-31T17:14:35;98175.31;;;11.92;71.92
68988;BME280;56038;46.080;11.116;2023-03-31T17:19:38;98159.84;;;11.89;72.77
68988;BME280;56038;46.080;11.116;2023-03-31T17:24:40;98166.84;;;11.89;72.69
68988;BME280;56038;46.080;11.116;2023-03-31T17:29:41;98176.13;;;11.80;72.95
68988;BME280;56038;46.080;11.116;2023-03-31T17:34:45;98179.19;;;11.73;72.60
68988;BME280;56038;46.080;11.116;2023-03-31T17:39:48;98195.63;;;11.75;72.42
68988;BME280;56038;46.080;11.116;2023-03-31T17:44:49;98200.13;;;11.73;72.67
68988;BME280;56038;46.080;11.116;2023-03-31T17:49:53;98212.38;;;11.72;72.63
68988;BME280;56038;46.080;11.116;2023-03-31T17:54:55;98212.84;;;11.79;71.44
68988;BME280;56038;46.080;11.116;2023-03-31T17:59:57;98214.97;;;11.86;71.22
68988;BME280;56038;46.080;11.116;2023-03-31T18:05:01;98223.94;;;11.82;71.21
68988;BME280;56038;46.080;11.116;2023-03-31T18:10:03;98250.47;;;11.76;71.76
68988;BME280;56038;46.080;11.116;2023-03-31T18:15:06;98260.28;;;11.73;72.42
68988;BME280;56038;46.080;11.116;2023-03-31T18:20:11;98253.59;;;11.68;71.98
68988;BME280;56038;46.080;11.116;2023-03-31T18:25:13;98268.44;;;11.68;73.24
68988;BME280;56038;46.080;11.116;2023-03-31T18:30:15;98267.13;;;11.61;73.31
68988;BME280;56038;46.080;11.116;2023-03-31T18:35:18;98284.03;;;11.55;73.99
68988;BME280;56038;46.080;11.116;2023-03-31T18:40:24;98282.53;;;11.51;74.13
68988;BME280;56038;46.080;11.116;2023-03-31T18:45:25;98296.53;;;11.50;73.73
68988;BME280;56038;46.080;11.116;2023-03-31T18:50:29;98295.88;;;11.47;74.20
68988;BME280;56038;46.080;11.116;2023-03-31T18:55:31;98302.81;;;11.48;73.76
68988;BME280;56038;46.080;11.116;2023-03-31T19:00:32;98274.41;;;11.42;74.66
68988;BME280;56038;46.080;11.116;2023-03-31T19:05:38;98247.88;;;11.33;76.96
68988;BME280;56038;46.080;11.116;2023-03-31T19:10:42;98268.81;;;11.33;75.24
68988;BME280;56038;46.080;11.116;2023-03-31T19:15:44;98261.53;;;11.38;74.56
68988;BME280;56038;46.080;11.116;2023-03-31T19:20:48;98233.53;;;11.40;73.30
68988;BME280;56038;46.080;11.116;2023-03-31T19:25:54;98231.09;;;11.37;74.62
68988;BME280;56038;46.080;11.116;2023-03-31T19:30:57;98244.34;;;11.34;75.16
68988;BME280;56038;46.080;11.116;2023-03-31T19:36:01;98239.03;;;11.22;76.01
68988;BME280;56038;46.080;11.116;2023-03-31T19:41:05;98260.88;;;11.06;77.06
68988;BME280;56038;46.080;11.116;2023-03-31T19:46:08;98253.38;;;11.00;77.23
68988;BME280;56038;46.080;11.116;2023-03-31T19:51:11;98257.97;;;10.97;77.17
68988;BME280;56038;46.080;11.116;2023-03-31T19:56:14;98261.69;;;10.93;77.47
68988;BME280;56038;46.080;11.116;2023-03-31T20:01:19;98259.59;;;10.84;76.58
68988;BME280;56038;46.080;11.116;2023-03-31T20:06:25;98264.38;;;10.77;77.20
68988;BME280;56038;46.080;11.116;2023-03-31T20:11:28;98268.00;;;10.74;77.83
68988;BME280;56038;46.080;11.116;2023-03-31T20:16:31;98255.00;;;10.73;78.13
68988;BME280;56038;46.080;11.116;2023-03-31T20:21:35;98257.75;;;10.56;79.42
68988;BME280;56038;46.080;11.116;2023-03-31T20:26:39;98256.34;;;10.50;79.08
68988;BME280;56038;46.080;11.116;2023-03-31T20:31:41;98259.72;;;10.52;78.49
68988;BME280;56038;46.080;11.116;2023-03-31T20:36:45;98267.38;;;10.55;78.60
68988;BME280;56038;46.080;11.116;2023-03-31T20:41:50;98275.88;;;10.59;78.70
68988;BME280;56038;46.080;11.116;2023-03-31T20:46:54;98261.22;;;10.56;79.40
68988;BME280;56038;46.080;11.116;2023-03-31T20:52:00;98249.28;;;10.52;79.33
68988;BME280;56038;46.080;11.116;2023-03-31T20:57:02;98246.28;;;10.44;80.43
68988;BME280;56038;46.080;11.116;2023-03-31T21:02:10;98235.84;;;10.44;79.80
68988;BME280;56038;46.080;11.116;2023-03-31T21:07:16;98235.94;;;10.42;80.12
68988;BME280;56038;46.080;11.116;2023-03-31T21:12:18;98235.41;;;10.36;80.49
68988;BME280;56038;46.080;11.116;2023-03-31T21:17:20;98252.00;;;10.35;81.11
68988;BME280;56038;46.080;11.116;2023-03-31T21:22:23;98246.78;;;10.35;80.19
68988;BME280;56038;46.080;11.116;2023-03-31T21:27:26;98247.53;;;10.37;80.01
68988;BME280;56038;46.080;11.116;2023-03-31T21:32:28;98240.06;;;10.31;80.89
68988;BME280;56038;46.080;11.116;2023-03-31T21:37:32;98239.22;;;10.30;80.54
68988;BME280;56038;46.080;11.116;2023-03-31T21:42:34;98232.25;;;10.31;80.87
68988;BME280;56038;46.080;11.116;2023-03-31T21:47:36;98228.69;;;10.32;80.48
68988;BME280;56038;46.080;11.116;2023-03-31T21:52:40;98244.09;;;10.36;80.92
68988;BME280;56038;46.080;11.116;2023-03-31T21:57:41;98225.91;;;10.35;80.60
68988;BME280;56038;46.080;11.116;2023-03-31T22:02:43;98231.88;;;10.37;80.64
68988;BME280;56038;46.080;11.116;2023-03-31T22:07:47;98238.22;;;10.33;80.16
68988;BME280;56038;46.080;11.116;2023-03-31T22:12:49;98241.56;;;10.35;79.98
68988;BME280;56038;46.080;11.116;2023-03-31T22:17:51;98232.81;;;10.36;80.91
68988;BME280;56038;46.080;11.116;2023-03-31T22:22:54;98232.44;;;10.28;80.50
68988;BME280;56038;46.080;11.116;2023-03-31T22:27:57;98222.22;;;10.23;80.40
68988;BME280;56038;46.080;11.116;2023-03-31T22:32:58;98221.53;;;10.19;81.39
68988;BME280;56038;46.080;11.116;2023-03-31T22:38:01;98225.25;;;10.15;80.72
68988;BME280;56038;46.080;11.116;2023-03-31T22:43:03;98224.81;;;10.07;81.40
68988;BME280;56038;46.080;11.116;2023-03-31T22:48:05;98217.63;;;9.97;81.46
68988;BME280;56038;46.080;11.116;2023-03-31T22:53:10;98218.97;;;9.88;80.58
68988;BME280;56038;46.080;11.116;2023-03-31T22:58:13;98221.84;;;9.83;81.32
68988;BME280;56038;46.080;11.116;2023-03-31T23:03:16;98231.94;;;9.74;81.56
68988;BME280;56038;46.080;11.116;2023-03-31T23:08:19;98236.75;;;9.66;81.74
68988;BME280;56038;46.080;11.116;2023-03-31T23:13:21;98240.34;;;9.63;81.49
68988;BME280;56038;46.080;11.116;2023-03-31T23:18:23;98242.13;;;9.63;81.32
68988;BME280;56038;46.080;11.116;2023-03-31T23:23:26;98239.06;;;9.54;81.03
68988;BME280;56038;46.080;11.116;2023-03-31T23:28:28;98241.78;;;9.53;81.63
68988;BME280;56038;46.080;11.116;2023-03-31T23:33:31;98249.00;;;9.48;81.54
68988;BME280;56038;46.080;11.116;2023-03-31T23:38:34;98243.94;;;9.45;81.63
68988;BME280;56038;46.080;11.116;2023-03-31T23:43:37;98233.75;;;9.40;81.75
68988;BME280;56038;46.080;11.116;2023-03-31T23:48:39;98236.09;;;9.29;81.83
68988;BME280;56038;46.080;11.116;2023-03-31T23:53:42;98232.72;;;9.27;82.14
68988;BME280;56038;46.080;11.116;2023-03-31T23:58:43;98243.81;;;9.30;82.08
